Country
Station

 

Weather  for  The Dalles, The Dalles Municipal Airport  -  United States    United States

  
3 °C (37 °F)
    
 
 

Current METAR for The Dalles, The Dalles Municipal Airport is :

KDLS 210753Z AUTO 22003KT 10SM OVC016 03/02 A2998 RMK AO2 SLP153 T00330017 400610022

 

This is a report for The Dalles, The Dalles Municipal Airport - United States.
 
The report was made 40 minutes ago, at 07:53 UTC .
The wind was blowing at a speed of 1.5 meters per second (3.5 miles per hour) from southwest (220°).
 
The temperature was 3 °C (37 °F), with a dew-point at 2 °C (36 °F).
The temperature felt like 1 °C (34 °F).
 
The atmospheric pressure was 1015 hPa (29.98 inHg).
The relative humidity was 93.1%.
 
The sky was overcast from a height of 488 meter (1600 feet)
 
The overall visibility was 16.1 kilometers (10.0 miles).
 

 
 
 
 

Country :   A   B   C   D   E   F   G   H   I   J   K   L   M   N   O   P   Q   R   S   T   U   V   W   Y   Z

 

Site Info  |  Disclaimer  |  Credits  |  Privacy
Contact us  |  Add to favorites
© 2013-2019 METARs - All rights reserved